首页
METAR-TAF:

METAR-TAF

机场 :

恰斯拉夫, 捷克共和国

纬度: 49-56-23N, 经度: 15-22-55E, 海拔: 242米

当前天气观测

该预报发布于55分钟前的15:00 UTC
风速4节,风向
温度 9°C
湿度 61%
气压 1007 hPa
能见度10公里或以上
1500米以下无云,无积雨云

METAR: LKCV 081500Z 19004KT CAVOK 09/02 Q1007 NOSIG RMK BLU BLU

时间: 16:55 (15:55 UTC)

预报

该预报发布于4小时和55分钟前的11:00 UTC
预报有效从08日的 12点(UTC)到 09日的 12点(UTC)
风速10节,风向南转西南
能见度10公里或以上
散云层高于3500英尺
成为
从 08日的 17点(UTC)到 08日的 19点(UTC)
多云层高于3000英尺
短暂存在
从 08日的 19点(UTC)到 09日的 06点(UTC)
风速18节,风向西南,有时为28节阵风
能見度: 7000
多云层高于2000英尺
阴天层高于3000英尺

TAF: LKCV 081100Z 0812/0912 21010KT 9999 SCT035 BECMG 0817/0819 BKN030 TEMPO 0819/0906 22018G28KT 7000 RA BKN020 OVC030

超过4000个机场的气象观测和天气预报(METAR&TAF报告)。

可查询的气象台以黄色和红色小点在地图上表示。

将鼠标移到小点上方,可查看气象台名称。

然后点击查看天气观测和预报。

如需切换地图:点击带黑十字的绿色按钮放大地图;点击带横线的绿色按钮缩小地图;或者点击绿色箭头查看邻近地区的地图。


METAR-TAF: